N100CX UAAT-UAAA
Flight info
| Callsign | N100CX |
|---|---|
| Flight time | 0h 59m |
| Altitude | FL120 |
| Route | IDILI L135 DESOK |
| Aircraft | C414/L-SBDFGRY/S |
Departure
| Time | 2026-04-27 15:44 |
|---|---|
| Airport | Taldykorgan Airport (UAAT) |
Arrival
| Time | 2026-04-27 16:43 |
|---|---|
| Airport | Almaty International Airport (UAAA) |
| Time | Latitude | Longitude | Altitude | Speed | Heading |
|---|---|---|---|---|---|
| 2026-04-27 15:36 | 45.11054 | 78.43882 | 1935 ft | 0 kts | 226° |
| 2026-04-27 15:38 | 45.11020 | 78.43871 | 1934 ft | 10 kts | 136° |
| 2026-04-27 15:39 | 45.11047 | 78.43951 | 1935 ft | 0 kts | 47° |
| 2026-04-27 15:39 | 45.11067 | 78.43959 | 1935 ft | 4 kts | 315° |
| 2026-04-27 15:39 | 45.11106 | 78.43914 | 1935 ft | 11 kts | 320° |
| 2026-04-27 15:40 | 45.11151 | 78.43858 | 1935 ft | 14 kts | 318° |
| 2026-04-27 15:40 | 45.11198 | 78.43756 | 1935 ft | 16 kts | 295° |
| 2026-04-27 15:40 | 45.11229 | 78.43657 | 1936 ft | 0 kts | 294° |
| 2026-04-27 15:41 | 45.11230 | 78.43653 | 1936 ft | 3 kts | 293° |
| 2026-04-27 15:41 | 45.11214 | 78.43555 | 1936 ft | 20 kts | 216° |
| 2026-04-27 15:42 | 45.11099 | 78.43445 | 1936 ft | 13 kts | 216° |
| 2026-04-27 15:42 | 45.11055 | 78.43435 | 1937 ft | 5 kts | 91° |
| 2026-04-27 15:42 | 45.11069 | 78.43451 | 1937 ft | 0 kts | 31° |
| 2026-04-27 15:42 | 45.11224 | 78.43557 | 1937 ft | 52 kts | 27° |
| 2026-04-27 15:43 | 45.11693 | 78.43886 | 1941 ft | 96 kts | 25° |
| 2026-04-27 15:43 | 45.12352 | 78.44346 | 2080 ft | 116 kts | 26° |
| 2026-04-27 15:43 | 45.13129 | 78.44904 | 2250 ft | 132 kts | 26° |
| 2026-04-27 15:43 | 45.13992 | 78.45486 | 2455 ft | 141 kts | 26° |
| 2026-04-27 15:44 | 45.14881 | 78.46085 | 2652 ft | 143 kts | 25° |
| 2026-04-27 15:44 | 45.15781 | 78.46699 | 2883 ft | 143 kts | 26° |
| 2026-04-27 15:44 | 45.16676 | 78.47317 | 3143 ft | 144 kts | 26° |
| 2026-04-27 15:44 | 45.17567 | 78.47930 | 3398 ft | 142 kts | 25° |
| 2026-04-27 15:45 | 45.18449 | 78.48538 | 3638 ft | 141 kts | 25° |
| 2026-04-27 15:45 | 45.19324 | 78.49142 | 3873 ft | 140 kts | 28° |
| 2026-04-27 15:45 | 45.20250 | 78.49507 | 4114 ft | 142 kts | 356° |
| 2026-04-27 15:45 | 45.21123 | 78.48858 | 4354 ft | 149 kts | 314° |
| 2026-04-27 15:46 | 45.21431 | 78.47463 | 4612 ft | 155 kts | 266° |
| 2026-04-27 15:46 | 45.21150 | 78.45976 | 4870 ft | 158 kts | 254° |
| 2026-04-27 15:46 | 45.20827 | 78.44485 | 5119 ft | 159 kts | 254° |
| 2026-04-27 15:46 | 45.20500 | 78.42979 | 5365 ft | 161 kts | 254° |
| 2026-04-27 15:47 | 45.20169 | 78.41457 | 5613 ft | 163 kts | 253° |
| 2026-04-27 15:47 | 45.19834 | 78.39930 | 5866 ft | 162 kts | 251° |
| 2026-04-27 15:47 | 45.19216 | 78.38611 | 6111 ft | 163 kts | 220° |
| 2026-04-27 15:47 | 45.18247 | 78.37849 | 6375 ft | 160 kts | 194° |
| 2026-04-27 15:48 | 45.17162 | 78.37774 | 6643 ft | 156 kts | 167° |
| 2026-04-27 15:48 | 45.16128 | 78.38206 | 6904 ft | 155 kts | 161° |
| 2026-04-27 15:48 | 45.15100 | 78.38638 | 7167 ft | 154 kts | 162° |
| 2026-04-27 15:49 | 45.13059 | 78.39523 | 7693 ft | 153 kts | 163° |
| 2026-04-27 15:49 | 45.12042 | 78.39965 | 7970 ft | 153 kts | 164° |
| 2026-04-27 15:49 | 45.11028 | 78.40403 | 8239 ft | 152 kts | 164° |
| 2026-04-27 15:49 | 45.10017 | 78.40843 | 8513 ft | 152 kts | 165° |
| 2026-04-27 15:50 | 45.09011 | 78.41276 | 8786 ft | 151 kts | 166° |
| 2026-04-27 15:50 | 45.07989 | 78.41313 | 9061 ft | 147 kts | 196° |
| 2026-04-27 15:50 | 45.07051 | 78.40774 | 9341 ft | 145 kts | 205° |
| 2026-04-27 15:50 | 45.06130 | 78.40216 | 9624 ft | 144 kts | 205° |
| 2026-04-27 15:51 | 45.05206 | 78.39648 | 9909 ft | 146 kts | 205° |
| 2026-04-27 15:51 | 45.04276 | 78.39073 | 10222 ft | 147 kts | 205° |
| 2026-04-27 15:51 | 45.03341 | 78.38497 | 10529 ft | 147 kts | 205° |
| 2026-04-27 15:51 | 45.02407 | 78.37921 | 10838 ft | 147 kts | 205° |
| 2026-04-27 15:52 | 45.01472 | 78.37344 | 11157 ft | 147 kts | 205° |
| 2026-04-27 15:52 | 45.00534 | 78.36766 | 11473 ft | 147 kts | 205° |
| 2026-04-27 15:52 | 44.99597 | 78.36188 | 11792 ft | 147 kts | 205° |
| 2026-04-27 15:52 | 44.98656 | 78.35609 | 12070 ft | 151 kts | 205° |
| 2026-04-27 15:53 | 44.97633 | 78.34976 | 12082 ft | 169 kts | 205° |
| 2026-04-27 15:53 | 44.96530 | 78.34296 | 12090 ft | 177 kts | 205° |
| 2026-04-27 15:53 | 44.95389 | 78.33595 | 12091 ft | 181 kts | 205° |
| 2026-04-27 15:53 | 44.94240 | 78.32889 | 12092 ft | 180 kts | 205° |
| 2026-04-27 15:54 | 44.93097 | 78.32186 | 12092 ft | 179 kts | 205° |
| 2026-04-27 15:54 | 44.91957 | 78.31487 | 12090 ft | 179 kts | 205° |
| 2026-04-27 15:54 | 44.90818 | 78.30787 | 12091 ft | 179 kts | 205° |
| 2026-04-27 15:54 | 44.89679 | 78.30088 | 12091 ft | 179 kts | 205° |
| 2026-04-27 15:55 | 44.88541 | 78.29390 | 12093 ft | 179 kts | 205° |
| 2026-04-27 15:55 | 44.87781 | 78.28923 | 12093 ft | 179 kts | 205° |
| 2026-04-27 15:55 | 44.86263 | 78.27993 | 12092 ft | 179 kts | 205° |
| 2026-04-27 15:55 | 44.85126 | 78.27296 | 12095 ft | 179 kts | 205° |
| 2026-04-27 15:56 | 44.83988 | 78.26600 | 12095 ft | 179 kts | 205° |
| 2026-04-27 15:56 | 44.82849 | 78.25902 | 12095 ft | 179 kts | 205° |
| 2026-04-27 15:56 | 44.81713 | 78.25207 | 12095 ft | 178 kts | 205° |
| 2026-04-27 15:56 | 44.80575 | 78.24512 | 12094 ft | 178 kts | 205° |
| 2026-04-27 15:57 | 44.79441 | 78.23819 | 12096 ft | 178 kts | 205° |
| 2026-04-27 15:57 | 44.78305 | 78.23123 | 12088 ft | 179 kts | 205° |
| 2026-04-27 15:57 | 44.77164 | 78.22426 | 12088 ft | 179 kts | 205° |
| 2026-04-27 15:57 | 44.76021 | 78.21729 | 12087 ft | 180 kts | 204° |
| 2026-04-27 15:58 | 44.74875 | 78.21030 | 12092 ft | 179 kts | 205° |
| 2026-04-27 15:58 | 44.73738 | 78.20335 | 12091 ft | 179 kts | 204° |
| 2026-04-27 15:58 | 44.72599 | 78.19642 | 12088 ft | 179 kts | 204° |
| 2026-04-27 15:58 | 44.71461 | 78.18948 | 12089 ft | 179 kts | 204° |
| 2026-04-27 15:59 | 44.70321 | 78.18253 | 12088 ft | 179 kts | 204° |
| 2026-04-27 15:59 | 44.69179 | 78.17558 | 12088 ft | 179 kts | 204° |
| 2026-04-27 15:59 | 44.68036 | 78.16862 | 12089 ft | 180 kts | 204° |
| 2026-04-27 15:59 | 44.66892 | 78.16167 | 12091 ft | 179 kts | 205° |
| 2026-04-27 16:00 | 44.65755 | 78.15475 | 12091 ft | 178 kts | 205° |
| 2026-04-27 16:00 | 44.64626 | 78.14788 | 12091 ft | 177 kts | 205° |
| 2026-04-27 16:00 | 44.63497 | 78.14102 | 12089 ft | 177 kts | 205° |
| 2026-04-27 16:00 | 44.62365 | 78.13414 | 12086 ft | 178 kts | 204° |
| 2026-04-27 16:01 | 44.61235 | 78.12728 | 12086 ft | 177 kts | 204° |
| 2026-04-27 16:01 | 44.60106 | 78.12044 | 12084 ft | 177 kts | 204° |
| 2026-04-27 16:01 | 44.58979 | 78.11357 | 12085 ft | 177 kts | 205° |
| 2026-04-27 16:01 | 44.57853 | 78.10668 | 12085 ft | 177 kts | 204° |
| 2026-04-27 16:02 | 44.56727 | 78.09981 | 12086 ft | 177 kts | 207° |
| 2026-04-27 16:02 | 44.55608 | 78.09287 | 12085 ft | 176 kts | 206° |
| 2026-04-27 16:02 | 44.54497 | 78.08607 | 12085 ft | 174 kts | 206° |
| 2026-04-27 16:02 | 44.53385 | 78.07933 | 12085 ft | 174 kts | 206° |
| 2026-04-27 16:03 | 44.52274 | 78.07258 | 12084 ft | 175 kts | 206° |
| 2026-04-27 16:03 | 44.51162 | 78.06583 | 12082 ft | 175 kts | 206° |
| 2026-04-27 16:03 | 44.50049 | 78.05907 | 12081 ft | 174 kts | 206° |
| 2026-04-27 16:03 | 44.48937 | 78.05230 | 12076 ft | 175 kts | 206° |
| 2026-04-27 16:04 | 44.47824 | 78.04555 | 12075 ft | 175 kts | 206° |
| 2026-04-27 16:04 | 44.46713 | 78.03879 | 12075 ft | 174 kts | 206° |
| 2026-04-27 16:04 | 44.45603 | 78.03206 | 12074 ft | 174 kts | 206° |
| 2026-04-27 16:04 | 44.44488 | 78.02531 | 12073 ft | 175 kts | 206° |
| 2026-04-27 16:05 | 44.43374 | 78.01854 | 12072 ft | 175 kts | 206° |
| 2026-04-27 16:05 | 44.42263 | 78.01181 | 12076 ft | 174 kts | 206° |
| 2026-04-27 16:05 | 44.41153 | 78.00506 | 12076 ft | 174 kts | 206° |
| 2026-04-27 16:05 | 44.40045 | 77.99837 | 12075 ft | 174 kts | 206° |
| 2026-04-27 16:06 | 44.38935 | 77.99165 | 12073 ft | 174 kts | 206° |
| 2026-04-27 16:06 | 44.37821 | 77.98492 | 12074 ft | 175 kts | 206° |
| 2026-04-27 16:06 | 44.36701 | 77.97813 | 12070 ft | 176 kts | 205° |
| 2026-04-27 16:06 | 44.35577 | 77.97133 | 12073 ft | 177 kts | 205° |
| 2026-04-27 16:07 | 44.34446 | 77.96450 | 12074 ft | 177 kts | 205° |
| 2026-04-27 16:07 | 44.33315 | 77.95767 | 12074 ft | 177 kts | 205° |
| 2026-04-27 16:07 | 44.32186 | 77.95085 | 12077 ft | 177 kts | 205° |
| 2026-04-27 16:07 | 44.31062 | 77.94405 | 12078 ft | 176 kts | 205° |
| 2026-04-27 16:08 | 44.29941 | 77.93729 | 12076 ft | 176 kts | 205° |
| 2026-04-27 16:08 | 44.28816 | 77.93051 | 12074 ft | 177 kts | 205° |
| 2026-04-27 16:08 | 44.27695 | 77.92364 | 12074 ft | 176 kts | 208° |
| 2026-04-27 16:08 | 44.26748 | 77.91327 | 12079 ft | 174 kts | 224° |
| 2026-04-27 16:09 | 44.25856 | 77.90194 | 12078 ft | 173 kts | 222° |
| 2026-04-27 16:09 | 44.24066 | 77.87957 | 12075 ft | 173 kts | 222° |
| 2026-04-27 16:09 | 44.23173 | 77.86834 | 12075 ft | 173 kts | 222° |
| 2026-04-27 16:10 | 44.21382 | 77.84585 | 12069 ft | 174 kts | 222° |
| 2026-04-27 16:10 | 44.19580 | 77.82324 | 12064 ft | 175 kts | 222° |
| 2026-04-27 16:11 | 44.18671 | 77.81182 | 12059 ft | 177 kts | 223° |
| 2026-04-27 16:11 | 44.16835 | 77.78886 | 12059 ft | 178 kts | 223° |
| 2026-04-27 16:12 | 44.14999 | 77.76586 | 12051 ft | 178 kts | 222° |
| 2026-04-27 16:12 | 44.14078 | 77.75435 | 12055 ft | 179 kts | 222° |
| 2026-04-27 16:12 | 44.12232 | 77.73127 | 12054 ft | 179 kts | 222° |
| 2026-04-27 16:13 | 44.11307 | 77.71972 | 12057 ft | 179 kts | 222° |
| 2026-04-27 16:13 | 44.09453 | 77.69657 | 12048 ft | 179 kts | 222° |
| 2026-04-27 16:13 | 44.08533 | 77.68510 | 12053 ft | 177 kts | 220° |
| 2026-04-27 16:14 | 44.06711 | 77.66237 | 12047 ft | 176 kts | 221° |
| 2026-04-27 16:14 | 44.04897 | 77.63977 | 12046 ft | 175 kts | 221° |
| 2026-04-27 16:15 | 44.03083 | 77.61721 | 12043 ft | 176 kts | 221° |
| 2026-04-27 16:15 | 44.01259 | 77.59454 | 12046 ft | 177 kts | 222° |
| 2026-04-27 16:16 | 43.99415 | 77.57162 | 12052 ft | 179 kts | 223° |
| 2026-04-27 16:16 | 43.97560 | 77.54858 | 12051 ft | 180 kts | 223° |
| 2026-04-27 16:17 | 43.95992 | 77.52193 | 12056 ft | 180 kts | 237° |
| 2026-04-27 16:17 | 43.94590 | 77.49308 | 12064 ft | 181 kts | 237° |
| 2026-04-27 16:18 | 43.93186 | 77.46415 | 12062 ft | 181 kts | 237° |
| 2026-04-27 16:18 | 43.91782 | 77.43524 | 12058 ft | 180 kts | 236° |
| 2026-04-27 16:19 | 43.91084 | 77.42087 | 12054 ft | 180 kts | 236° |
| 2026-04-27 16:19 | 43.90386 | 77.40650 | 12054 ft | 179 kts | 236° |
| 2026-04-27 16:20 | 43.88295 | 77.36355 | 12050 ft | 180 kts | 237° |
| 2026-04-27 16:20 | 43.87595 | 77.34918 | 12052 ft | 180 kts | 236° |
| 2026-04-27 16:20 | 43.86196 | 77.32050 | 12053 ft | 180 kts | 236° |
| 2026-04-27 16:21 | 43.85498 | 77.30620 | 12052 ft | 180 kts | 237° |
| 2026-04-27 16:21 | 43.83414 | 77.26349 | 12052 ft | 178 kts | 236° |
| 2026-04-27 16:22 | 43.82720 | 77.24930 | 12052 ft | 178 kts | 236° |
| 2026-04-27 16:22 | 43.80796 | 77.22982 | 12052 ft | 176 kts | 196° |
| 2026-04-27 16:22 | 43.79600 | 77.22594 | 12064 ft | 178 kts | 197° |
| 2026-04-27 16:23 | 43.78400 | 77.22188 | 12063 ft | 178 kts | 197° |
| 2026-04-27 16:23 | 43.75979 | 77.21377 | 12062 ft | 180 kts | 197° |
| 2026-04-27 16:23 | 43.74762 | 77.20970 | 12062 ft | 181 kts | 197° |
| 2026-04-27 16:24 | 43.73539 | 77.20562 | 12063 ft | 181 kts | 197° |
| 2026-04-27 16:24 | 43.71098 | 77.19745 | 12062 ft | 181 kts | 197° |
| 2026-04-27 16:25 | 43.68645 | 77.18927 | 12061 ft | 182 kts | 196° |
| 2026-04-27 16:25 | 43.66183 | 77.18105 | 12060 ft | 183 kts | 196° |
| 2026-04-27 16:26 | 43.63715 | 77.17283 | 12065 ft | 183 kts | 196° |
| 2026-04-27 16:26 | 43.61243 | 77.16459 | 12065 ft | 183 kts | 196° |
| 2026-04-27 16:27 | 43.58766 | 77.15635 | 12080 ft | 183 kts | 196° |
| 2026-04-27 16:27 | 43.55046 | 77.14414 | 12088 ft | 184 kts | 194° |
| 2026-04-27 16:28 | 43.52564 | 77.13588 | 12089 ft | 184 kts | 194° |
| 2026-04-27 16:28 | 43.50295 | 77.12127 | 12093 ft | 183 kts | 226° |
| 2026-04-27 16:29 | 43.48105 | 77.07814 | 12103 ft | 184 kts | 235° |
| 2026-04-27 16:30 | 43.46661 | 77.04912 | 11750 ft | 182 kts | 235° |
| 2026-04-27 16:30 | 43.45245 | 77.02074 | 11255 ft | 179 kts | 234° |
| 2026-04-27 16:31 | 43.43165 | 76.97908 | 10692 ft | 168 kts | 234° |
| 2026-04-27 16:31 | 43.41826 | 76.95232 | 10260 ft | 175 kts | 234° |
| 2026-04-27 16:32 | 43.40428 | 76.92440 | 9791 ft | 180 kts | 234° |
| 2026-04-27 16:32 | 43.39720 | 76.91026 | 9534 ft | 180 kts | 234° |
| 2026-04-27 16:33 | 43.38293 | 76.88179 | 9027 ft | 181 kts | 234° |
| 2026-04-27 16:33 | 43.37580 | 76.86756 | 8771 ft | 181 kts | 234° |
| 2026-04-27 16:33 | 43.36865 | 76.85331 | 8503 ft | 182 kts | 234° |
| 2026-04-27 16:33 | 43.36146 | 76.83900 | 8276 ft | 182 kts | 234° |
| 2026-04-27 16:34 | 43.35431 | 76.82470 | 8024 ft | 182 kts | 234° |
| 2026-04-27 16:34 | 43.34713 | 76.81037 | 7773 ft | 182 kts | 234° |
| 2026-04-27 16:34 | 43.33996 | 76.79607 | 7537 ft | 182 kts | 234° |
| 2026-04-27 16:34 | 43.33281 | 76.78181 | 7296 ft | 182 kts | 234° |
| 2026-04-27 16:35 | 43.32544 | 76.76776 | 7057 ft | 181 kts | 227° |
| 2026-04-27 16:35 | 43.31530 | 76.75808 | 6822 ft | 179 kts | 201° |
| 2026-04-27 16:35 | 43.29137 | 76.75838 | 6354 ft | 176 kts | 154° |
| 2026-04-27 16:36 | 43.28112 | 76.76725 | 6101 ft | 174 kts | 144° |
| 2026-04-27 16:36 | 43.27107 | 76.77657 | 5855 ft | 174 kts | 144° |
| 2026-04-27 16:36 | 43.26105 | 76.78586 | 5606 ft | 175 kts | 144° |
| 2026-04-27 16:36 | 43.25094 | 76.79526 | 5354 ft | 176 kts | 144° |
| 2026-04-27 16:37 | 43.24081 | 76.80468 | 5106 ft | 177 kts | 144° |
| 2026-04-27 16:37 | 43.23110 | 76.81476 | 4853 ft | 175 kts | 129° |
| 2026-04-27 16:37 | 43.22730 | 76.83001 | 4604 ft | 173 kts | 85° |
| 2026-04-27 16:37 | 43.23232 | 76.84435 | 4362 ft | 171 kts | 41° |
| 2026-04-27 16:38 | 43.24309 | 76.85005 | 4204 ft | 165 kts | 8° |
| 2026-04-27 16:38 | 43.25369 | 76.85346 | 4211 ft | 152 kts | 26° |
| 2026-04-27 16:38 | 43.26195 | 76.86208 | 4100 ft | 150 kts | 46° |
| 2026-04-27 16:38 | 43.26892 | 76.87184 | 4192 ft | 138 kts | 51° |
| 2026-04-27 16:39 | 43.27458 | 76.88220 | 4201 ft | 135 kts | 52° |
| 2026-04-27 16:39 | 43.27994 | 76.89256 | 4199 ft | 132 kts | 53° |
| 2026-04-27 16:39 | 43.28501 | 76.90299 | 4197 ft | 131 kts | 54° |
| 2026-04-27 16:39 | 43.29026 | 76.91361 | 4061 ft | 139 kts | 53° |
| 2026-04-27 16:40 | 43.29584 | 76.92489 | 3874 ft | 147 kts | 53° |
| 2026-04-27 16:40 | 43.30167 | 76.93672 | 3680 ft | 150 kts | 53° |
| 2026-04-27 16:40 | 43.30738 | 76.94842 | 3485 ft | 144 kts | 53° |
| 2026-04-27 16:40 | 43.31277 | 76.95938 | 3302 ft | 131 kts | 53° |
| 2026-04-27 16:41 | 43.31743 | 76.96891 | 3136 ft | 112 kts | 53° |
| 2026-04-27 16:41 | 43.32142 | 76.97699 | 2990 ft | 96 kts | 53° |
| 2026-04-27 16:41 | 43.32519 | 76.98458 | 2860 ft | 98 kts | 55° |
| 2026-04-27 16:41 | 43.32901 | 76.99238 | 2729 ft | 98 kts | 55° |
| 2026-04-27 16:42 | 43.33277 | 76.99997 | 2592 ft | 94 kts | 55° |
| 2026-04-27 16:42 | 43.33631 | 77.00730 | 2443 ft | 91 kts | 54° |
| 2026-04-27 16:42 | 43.33985 | 77.01451 | 2297 ft | 89 kts | 55° |
| 2026-04-27 16:42 | 43.34310 | 77.02106 | 2227 ft | 74 kts | 56° |
| 2026-04-27 16:43 | 43.34465 | 77.02411 | 2228 ft | 13 kts | 26° |
| 2026-04-27 16:43 | 43.34497 | 77.02317 | 2227 ft | 18 kts | 273° |
| 2026-04-27 16:43 | 43.34506 | 77.02126 | 2223 ft | 12 kts | 272° |
| 2026-04-27 16:43 | 43.34510 | 77.01981 | 2222 ft | 19 kts | 274° |
| 2026-04-27 16:44 | 43.34518 | 77.01809 | 2221 ft | 17 kts | 274° |
| 2026-04-27 16:44 | 43.34524 | 77.01619 | 2220 ft | 23 kts | 273° |
| 2026-04-27 16:44 | 43.34518 | 77.01511 | 2219 ft | 5 kts | 170° |
| 2026-04-27 16:44 | 43.34468 | 77.01541 | 2218 ft | 11 kts | 156° |
| 2026-04-27 16:45 | 43.34381 | 77.01594 | 2221 ft | 17 kts | 156° |
| 2026-04-27 16:45 | 43.34307 | 77.01628 | 2221 ft | 5 kts | 231° |
| 2026-04-27 16:45 | 43.34283 | 77.01553 | 2221 ft | 12 kts | 245° |
| 2026-04-27 16:45 | 43.34255 | 77.01459 | 2220 ft | 5 kts | 271° |
| 2026-04-27 16:46 | 43.34276 | 77.01423 | 2220 ft | 3 kts | 243° |
| 2026-04-27 16:46 | 43.34272 | 77.01410 | 2221 ft | 0 kts | 248° |